Time,TemperatureF,DewpointF,PressureIn,WindDirection,WindDirectionDegrees,WindSpeedMPH,WindSpeedGustMPH,Humidity,HourlyPrecipIn,Conditions,Clouds,dailyrainin,SoftwareType,DateUTC
2013-06-23 00:01:00,79.0,71.0,30.08,ESE,121,3.0,6.0,76,99.99,,,-99.99,,2013-06-23 04:01:00,
2013-06-23 00:11:00,75.0,73.0,30.11,ESE,105,4.0,6.0,95,99.99,,,-99.99,,2013-06-23 04:11:00,
2013-06-23 00:21:00,75.0,73.0,30.11,ESE,105,4.0,6.0,95,99.99,,,-99.99,,2013-06-23 04:21:00,
2013-06-23 00:31:00,75.0,73.0,30.11,SE,138,3.0,5.0,95,99.99,,,-99.99,,2013-06-23 04:31:00,
2013-06-23 00:42:00,75.0,73.0,30.11,SE,138,3.0,5.0,95,99.99,,,-99.99,,2013-06-23 04:42:00,
2013-06-23 00:52:00,75.0,73.0,30.11,SE,138,3.0,5.0,95,99.99,,,-99.99,,2013-06-23 04:52:00,
2013-06-23 01:01:00,75.0,73.0,30.11,SE,138,3.0,5.0,95,99.99,,,-99.99,,2013-06-23 05:01:00,
2013-06-23 01:11:00,75.0,73.0,30.11,ESE,108,3.0,6.0,95,99.99,,,-99.99,,2013-06-23 05:11:00,
2013-06-23 01:22:00,75.0,73.0,30.11,ESE,108,3.0,6.0,95,99.99,,,-99.99,,2013-06-23 05:22:00,
2013-06-23 01:32:00,73.0,72.0,30.11,North,0,0.0,0.0,98,99.99,,,-99.99,,2013-06-23 05:32:00,
2013-06-23 01:41:00,73.0,73.0,30.11,North,0,0.0,0.0,99,99.99,,,-99.99,,2013-06-23 05:41:00,
2013-06-23 01:51:00,72.0,72.0,30.11,East,86,0.0,2.0,100,99.99,,,-99.99,,2013-06-23 05:51:00,
2013-06-23 02:02:00,73.0,73.0,30.10,ESE,103,2.0,3.0,100,99.99,,,-99.99,,2013-06-23 06:02:00,
2013-06-23 02:12:00,73.0,73.0,30.10,ESE,115,3.0,4.0,100,99.99,,,-99.99,,2013-06-23 06:12:00,
2013-06-23 02:22:00,73.0,73.0,30.10,ESE,113,2.0,4.0,100,99.99,,,-99.99,,2013-06-23 06:22:00,
2013-06-23 02:33:00,73.0,73.0,30.09,ESE,113,2.0,3.0,100,99.99,,,-99.99,,2013-06-23 06:33:00,
2013-06-23 02:43:00,73.0,73.0,30.09,SE,134,2.0,3.0,100,99.99,,,-99.99,,2013-06-23 06:43:00,
2013-06-23 02:52:00,73.0,73.0,30.09,ESE,114,1.0,3.0,100,99.99,,,-99.99,,2013-06-23 06:52:00,
2013-06-23 03:02:00,73.0,73.0,30.08,ESE,113,3.0,4.0,100,99.99,,,-99.99,,2013-06-23 07:02:00,
2013-06-23 03:12:00,73.0,73.0,30.08,East,101,2.0,3.0,100,99.99,,,-99.99,,2013-06-23 07:12:00,
2013-06-23 03:22:00,72.0,72.0,30.08,North,0,0.0,0.0,100,99.99,,,-99.99,,2013-06-23 07:22:00,
2013-06-23 03:34:00,72.0,72.0,30.08,North,0,0.0,0.0,100,99.99,,,-99.99,,2013-06-23 07:34:00,
2013-06-23 03:43:00,72.0,72.0,30.08,North,0,0.0,0.0,100,99.99,,,-99.99,,2013-06-23 07:43:00,
2013-06-23 03:53:00,72.0,72.0,30.08,ESE,104,3.0,4.0,100,99.99,,,-99.99,,2013-06-23 07:53:00,
2013-06-23 04:02:00,72.0,72.0,30.08,SE,131,3.0,4.0,100,99.99,,,-99.99,,2013-06-23 08:02:00,
2013-06-23 04:12:00,73.0,73.0,30.08,ESE,114,1.0,4.0,100,99.99,,,-99.99,,2013-06-23 08:12:00,
2013-06-23 04:22:00,73.0,73.0,30.08,North,0,0.0,0.0,100,99.99,,,-99.99,,2013-06-23 08:22:00,
2013-06-23 04:34:00,72.0,72.0,30.08,NNW,346,1.0,2.0,100,99.99,,,-99.99,,2013-06-23 08:34:00,
2013-06-23 04:43:00,72.0,72.0,30.08,NNW,339,3.0,4.0,100,99.99,,,-99.99,,2013-06-23 08:43:00,
2013-06-23 04:53:00,72.0,72.0,30.07,NNW,347,1.0,2.0,100,99.99,,,-99.99,,2013-06-23 08:53:00,
2013-06-23 05:02:00,72.0,72.0,30.07,North,0,0.0,0.0,100,99.99,,,-99.99,,2013-06-23 09:02:00,
2013-06-23 05:12:00,72.0,72.0,30.07,North,0,0.0,0.0,100,99.99,,,-99.99,,2013-06-23 09:12:00,
2013-06-23 05:22:00,72.0,72.0,30.07,ENE,72,0.0,2.0,100,99.99,,,-99.99,,2013-06-23 09:22:00,
2013-06-23 05:34:00,72.0,72.0,30.07,ESE,105,0.0,2.0,100,99.99,,,-99.99,,2013-06-23 09:34:00,
2013-06-23 05:43:00,72.0,72.0,30.07,North,0,0.0,0.0,100,99.99,,,-99.99,,2013-06-23 09:43:00,
2013-06-23 05:53:00,72.0,72.0,30.07,ESE,117,4.0,5.0,100,99.99,,,-99.99,,2013-06-23 09:53:00,
2013-06-23 06:02:00,72.0,72.0,30.07,SE,129,2.0,3.0,100,99.99,,,-99.99,,2013-06-23 10:02:00,
2013-06-23 06:11:00,73.0,73.0,30.07,ESE,118,3.0,4.0,100,99.99,,,-99.99,,2013-06-23 10:11:00,
2013-06-23 06:22:00,73.0,73.0,30.08,ESE,104,3.0,4.0,100,99.99,,,-99.99,,2013-06-23 10:22:00,
2013-06-23 06:34:00,73.0,73.0,30.08,ESE,115,3.0,5.0,100,99.99,,,-99.99,,2013-06-23 10:34:00,
2013-06-23 06:43:00,73.0,73.0,30.08,North,0,0.0,0.0,100,99.99,,,-99.99,,2013-06-23 10:43:00,
2013-06-23 06:53:00,72.0,72.0,30.09,East,98,0.0,2.0,100,99.99,,,-99.99,,2013-06-23 10:53:00,
2013-06-23 07:02:00,73.0,73.0,30.08,ESE,103,2.0,5.0,100,99.99,,,-99.99,,2013-06-23 11:02:00,
2013-06-23 07:11:00,73.0,73.0,30.09,ESE,105,2.0,4.0,100,99.99,,,-99.99,,2013-06-23 11:11:00,
2013-06-23 07:22:00,73.0,73.0,30.08,ESE,103,2.0,5.0,100,99.99,,,-99.99,,2013-06-23 11:22:00,
2013-06-23 07:33:00,73.0,73.0,30.09,North,0,0.0,0.0,100,99.99,,,-99.99,,2013-06-23 11:33:00,
2013-06-23 07:43:00,74.0,74.0,30.10,ESE,103,1.0,4.0,100,99.99,,,-99.99,,2013-06-23 11:43:00,
2013-06-23 07:53:00,74.0,74.0,30.10,ESE,108,3.0,5.0,100,99.99,,,-99.99,,2013-06-23 11:53:00,
2013-06-23 08:01:00,75.0,75.0,30.11,ESE,117,2.0,4.0,100,99.99,,,-99.99,,2013-06-23 12:01:00,
2013-06-23 08:12:00,75.0,75.0,30.11,ESE,107,3.0,6.0,100,99.99,,,-99.99,,2013-06-23 12:12:00,
2013-06-23 08:22:00,76.0,76.0,30.11,ESE,113,4.0,6.0,100,99.99,,,-99.99,,2013-06-23 12:22:00,
2013-06-23 08:33:00,76.0,76.0,30.11,ESE,118,2.0,6.0,100,99.99,,,-99.99,,2013-06-23 12:33:00,
2013-06-23 08:42:00,76.0,76.0,30.11,ESE,118,2.0,6.0,100,99.99,,,-99.99,,2013-06-23 12:42:00,
2013-06-23 08:53:00,77.0,77.0,30.11,ESE,114,2.0,5.0,100,99.99,,,-99.99,,2013-06-23 12:53:00,
2013-06-23 09:02:00,78.0,78.0,30.12,ESE,104,3.0,7.0,100,99.99,,,-99.99,,2013-06-23 13:02:00,
2013-06-23 09:23:00,80.0,78.0,30.12,ESE,120,3.0,7.0,94,99.99,,,-99.99,,2013-06-23 13:23:00,
2013-06-23 09:34:00,82.0,77.0,30.12,ESE,115,3.0,6.0,85,99.99,,,-99.99,,2013-06-23 13:34:00,
2013-06-23 09:43:00,82.0,76.0,30.12,ESE,108,3.0,6.0,82,99.99,,,-99.99,,2013-06-23 13:43:00,
2013-06-23 09:53:00,84.0,76.0,30.12,East,93,3.0,7.0,76,99.99,,,-99.99,,2013-06-23 13:53:00,
2013-06-23 10:04:00,84.0,74.0,30.12,SE,131,3.0,7.0,72,99.99,,,-99.99,,2013-06-23 14:04:00,
2013-06-23 10:11:00,85.0,74.0,30.12,ESE,114,2.0,7.0,70,99.99,,,-99.99,,2013-06-23 14:11:00,
2013-06-23 10:22:00,85.0,74.0,30.12,South,170,2.0,6.0,70,99.99,,,-99.99,,2013-06-23 14:22:00,
2013-06-23 10:34:00,85.0,73.0,30.12,SSE,159,4.0,8.0,67,99.99,,,-99.99,,2013-06-23 14:34:00,
2013-06-23 10:44:00,85.0,73.0,30.12,SSE,166,4.0,9.0,68,99.99,,,-99.99,,2013-06-23 14:44:00,
2013-06-23 10:52:00,85.0,74.0,30.12,East,100,2.0,5.0,69,99.99,,,-99.99,,2013-06-23 14:52:00,
2013-06-23 11:05:00,86.0,74.0,30.12,ESE,110,3.0,7.0,68,99.99,,,-99.99,,2013-06-23 15:05:00,
2013-06-23 11:11:00,86.0,72.0,30.12,SE,124,3.0,7.0,64,99.99,,,-99.99,,2013-06-23 15:11:00,
2013-06-23 11:23:00,86.0,73.0,30.12,East,101,1.0,6.0,65,99.99,,,-99.99,,2013-06-23 15:23:00,
2013-06-23 11:35:00,87.0,72.0,30.12,SE,124,5.0,9.0,62,99.99,,,-99.99,,2013-06-23 15:35:00,
2013-06-23 11:43:00,87.0,71.0,30.12,ESE,107,2.0,8.0,59,99.99,,,-99.99,,2013-06-23 15:43:00,
2013-06-23 11:52:00,88.0,71.0,30.12,ESE,103,3.0,7.0,58,99.99,,,-99.99,,2013-06-23 15:52:00,
2013-06-23 12:06:00,88.0,70.0,30.12,ESE,104,4.0,9.0,56,99.99,,,-99.99,,2013-06-23 16:06:00,
2013-06-23 12:12:00,88.0,71.0,30.12,SE,146,4.0,8.0,57,99.99,,,-99.99,,2013-06-23 16:12:00,
2013-06-23 12:22:00,88.0,70.0,30.12,SE,124,3.0,6.0,56,99.99,,,-99.99,,2013-06-23 16:22:00,
2013-06-23 12:36:00,88.0,71.0,30.12,North,0,0.0,0.0,57,99.99,,,-99.99,,2013-06-23 16:36:00,
2013-06-23 12:43:00,88.0,71.0,30.12,ESE,117,4.0,8.0,57,99.99,,,-99.99,,2013-06-23 16:43:00,
2013-06-23 12:53:00,89.0,71.0,30.12,East,98,1.0,7.0,55,99.99,,,-99.99,,2013-06-23 16:53:00,
2013-06-23 13:05:00,89.0,71.0,30.12,SE,132,3.0,10.0,55,99.99,,,-99.99,,2013-06-23 17:05:00,
2013-06-23 13:12:00,89.0,71.0,30.12,ESE,104,2.0,6.0,55,99.99,,,-99.99,,2013-06-23 17:12:00,
2013-06-23 13:22:00,88.0,73.0,30.13,ESE,114,5.0,11.0,61,99.99,,,-99.99,,2013-06-23 17:22:00,
2013-06-23 13:33:00,87.0,75.0,30.12,SSW,195,5.0,13.0,68,99.99,,,-99.99,,2013-06-23 17:33:00,
2013-06-23 13:43:00,82.0,73.0,30.13,SSE,149,12.0,20.0,75,99.99,,,-99.99,,2013-06-23 17:43:00,
2013-06-23 14:22:00,78.0,78.0,30.11,SW,232,4.0,7.0,100,99.99,,,-99.99,,2013-06-23 18:22:00,
2013-06-23 14:34:00,79.0,79.0,30.11,SW,224,5.0,7.0,100,99.99,,,-99.99,,2013-06-23 18:34:00,
2013-06-23 14:42:00,79.0,79.0,30.11,SE,136,3.0,8.0,100,99.99,,,-99.99,,2013-06-23 18:42:00,
2013-06-23 14:53:00,79.0,79.0,30.13,SE,134,2.0,5.0,100,99.99,,,-99.99,,2013-06-23 18:53:00,
2013-06-23 15:01:00,79.0,79.0,30.13,NE,52,3.0,5.0,99,99.99,,,-99.99,,2013-06-23 19:01:00,
2013-06-23 15:11:00,78.0,77.0,30.13,NNE,15,4.0,9.0,97,99.99,,,-99.99,,2013-06-23 19:11:00,
2013-06-23 15:21:00,77.0,76.0,30.12,NNE,13,5.0,7.0,97,99.99,,,-99.99,,2013-06-23 19:21:00,
2013-06-23 15:32:00,77.0,76.0,30.12,North,11,6.0,10.0,98,99.99,,,-99.99,,2013-06-23 19:32:00,
2013-06-23 15:43:00,76.0,76.0,30.11,NE,56,4.0,6.0,100,99.99,,,-99.99,,2013-06-23 19:43:00,
2013-06-23 15:53:00,76.0,76.0,30.11,NNE,20,4.0,7.0,100,99.99,,,-99.99,,2013-06-23 19:53:00,
2013-06-23 16:02:00,76.0,76.0,30.11,North,6,2.0,5.0,100,99.99,,,-99.99,,2013-06-23 20:02:00,
2013-06-23 16:12:00,77.0,77.0,30.09,ENE,59,3.0,6.0,100,99.99,,,-99.99,,2013-06-23 20:12:00,
2013-06-23 16:33:00,78.0,78.0,30.10,NE,48,1.0,4.0,100,99.99,,,-99.99,,2013-06-23 20:33:00,
2013-06-23 16:42:00,79.0,78.0,30.10,ESE,105,2.0,5.0,98,99.99,,,-99.99,,2013-06-23 20:42:00,
2013-06-23 16:53:00,80.0,77.0,30.10,SE,128,3.0,5.0,90,99.99,,,-99.99,,2013-06-23 20:53:00,
2013-06-23 17:01:00,82.0,76.0,30.09,ESE,107,4.0,7.0,82,99.99,,,-99.99,,2013-06-23 21:01:00,
2013-06-23 17:11:00,83.0,76.0,30.09,NE,51,0.0,3.0,79,99.99,,,-99.99,,2013-06-23 21:11:00,
2013-06-23 17:22:00,83.0,74.0,30.09,ESE,118,3.0,8.0,75,99.99,,,-99.99,,2013-06-23 21:22:00,
2013-06-23 17:34:00,84.0,75.0,30.09,NE,42,3.0,6.0,74,99.99,,,-99.99,,2013-06-23 21:34:00,
2013-06-23 17:44:00,84.0,74.0,30.10,ESE,108,3.0,6.0,73,99.99,,,-99.99,,2013-06-23 21:44:00,
2013-06-23 17:52:00,84.0,74.0,30.09,ESE,108,2.0,6.0,72,99.99,,,-99.99,,2013-06-23 21:52:00,
2013-06-23 18:01:00,85.0,74.0,30.09,ENE,70,1.0,5.0,70,99.99,,,-99.99,,2013-06-23 22:01:00,
2013-06-23 18:12:00,85.0,73.0,30.09,ESE,108,2.0,6.0,68,99.99,,,-99.99,,2013-06-23 22:12:00,
2013-06-23 18:22:00,85.0,74.0,30.09,NE,49,4.0,7.0,70,99.99,,,-99.99,,2013-06-23 22:22:00,
2013-06-23 18:32:00,84.0,74.0,30.08,NE,55,6.0,13.0,72,99.99,,,-99.99,,2013-06-23 22:32:00,
2013-06-23 18:43:00,83.0,74.0,30.08,NE,46,6.0,11.0,75,99.99,,,-99.99,,2013-06-23 22:43:00,
2013-06-23 18:53:00,82.0,74.0,30.09,NE,53,5.0,10.0,78,99.99,,,-99.99,,2013-06-23 22:53:00,
2013-06-23 19:01:00,81.0,75.0,30.09,ENE,60,2.0,7.0,81,99.99,,,-99.99,,2013-06-23 23:01:00,
2013-06-23 19:11:00,81.0,75.0,30.09,NE,49,1.0,6.0,82,99.99,,,-99.99,,2013-06-23 23:11:00,
2013-06-23 19:22:00,81.0,75.0,30.10,ENE,68,1.0,6.0,83,99.99,,,-99.99,,2013-06-23 23:22:00,
2013-06-23 19:33:00,81.0,75.0,30.10,NE,45,2.0,8.0,83,99.99,,,-99.99,,2013-06-23 23:33:00,
2013-06-23 19:44:00,81.0,75.0,30.10,East,98,2.0,6.0,83,99.99,,,-99.99,,2013-06-23 23:44:00,
2013-06-23 19:52:00,80.0,75.0,30.10,ESE,103,1.0,6.0,84,99.99,,,-99.99,,2013-06-23 23:52:00,
2013-06-23 20:01:00,81.0,77.0,30.10,SE,146,1.0,4.0,87,99.99,,,-99.99,,2013-06-24 00:01:00,
2013-06-23 20:11:00,80.0,76.0,30.10,East,89,2.0,9.0,89,99.99,,,-99.99,,2013-06-24 00:11:00,
2013-06-23 20:22:00,79.0,76.0,30.10,ESE,104,1.0,6.0,92,99.99,,,-99.99,,2013-06-24 00:22:00,
2013-06-23 20:33:00,78.0,76.0,30.10,ESE,114,2.0,7.0,95,99.99,,,-99.99,,2013-06-24 00:33:00,
2013-06-23 20:42:00,78.0,77.0,30.10,East,101,3.0,7.0,96,99.99,,,-99.99,,2013-06-24 00:42:00,
2013-06-23 20:52:00,78.0,77.0,30.11,ESE,122,3.0,5.0,98,99.99,,,-99.99,,2013-06-24 00:52:00,
2013-06-23 21:02:00,78.0,78.0,30.11,ESE,117,3.0,6.0,99,99.99,,,-99.99,,2013-06-24 01:02:00,
2013-06-23 21:11:00,77.0,77.0,30.11,ESE,113,2.0,5.0,99,99.99,,,-99.99,,2013-06-24 01:11:00,
2013-06-23 21:22:00,77.0,77.0,30.11,ESE,113,2.0,5.0,99,99.99,,,-99.99,,2013-06-24 01:22:00,
2013-06-23 21:32:00,77.0,77.0,30.11,ESE,104,3.0,5.0,100,99.99,,,-99.99,,2013-06-24 01:32:00,
2013-06-23 21:42:00,77.0,77.0,30.12,East,98,4.0,6.0,100,99.99,,,-99.99,,2013-06-24 01:42:00,
2013-06-23 21:53:00,77.0,77.0,30.12,ESE,105,4.0,7.0,100,99.99,,,-99.99,,2013-06-24 01:53:00,
2013-06-23 22:02:00,77.0,77.0,30.13,ESE,104,3.0,5.0,100,99.99,,,-99.99,,2013-06-24 02:02:00,
2013-06-23 22:11:00,76.0,76.0,30.13,ESE,122,3.0,5.0,100,99.99,,,-99.99,,2013-06-24 02:11:00,
2013-06-23 22:22:00,76.0,76.0,30.13,ESE,122,3.0,5.0,100,99.99,,,-99.99,,2013-06-24 02:22:00,
2013-06-23 22:33:00,76.0,76.0,30.14,SE,125,2.0,4.0,100,99.99,,,-99.99,,2013-06-24 02:33:00,
2013-06-23 22:42:00,76.0,76.0,30.14,ESE,108,2.0,4.0,100,99.99,,,-99.99,,2013-06-24 02:42:00,
2013-06-23 22:53:00,76.0,76.0,30.14,SE,134,3.0,5.0,100,99.99,,,-99.99,,2013-06-24 02:53:00,
2013-06-23 23:01:00,76.0,76.0,30.15,SE,138,3.0,5.0,100,99.99,,,-99.99,,2013-06-24 03:01:00,
2013-06-23 23:11:00,76.0,76.0,30.14,ESE,117,4.0,6.0,100,99.99,,,-99.99,,2013-06-24 03:11:00,
2013-06-23 23:22:00,76.0,76.0,30.14,ESE,117,4.0,6.0,100,99.99,,,-99.99,,2013-06-24 03:22:00,
2013-06-23 23:33:00,76.0,76.0,30.14,ESE,117,4.0,6.0,100,99.99,,,-99.99,,2013-06-24 03:33:00,
2013-06-23 23:43:00,76.0,76.0,30.15,ESE,104,2.0,4.0,100,99.99,,,-99.99,,2013-06-24 03:43:00,
2013-06-23 23:53:00,76.0,76.0,30.15,ESE,104,2.0,4.0,100,99.99,,,-99.99,,2013-06-24 03:53:00,